Aurelia, North Dakota
Current Conditions -  °F | °C
As of 2:15 PM on Monday 24 Nov 2014 (Local Time) from K08D Reporting Station
Few Clouds Few Clouds  
Wind Chill: -13°   Ceiling: Unl
Heat Index: -6°   Visibility: 10mi
Dew Point: -9°   Wind: 13mph
Humidity: 80%   Direction: 280°W
Pressure: 29.93"   Gusts: 20mph
Location:  48.4598°N, 101.907°W
Report Text: K08D 242015Z AUTO 28011G17KT 10SM FEW065 M06/M09 A2993 RMK AO2
Loading
Personal Weather Stations






























Interactive Weather Map New forecast layout! Learn more

10-Day Weather Forecast

Advertisements
Track Severe Weather on mobile